Terminal Aerodrome Forecast
Issued by NWS South Bend, IN

Home | Current Version | Previous Version | Graphics & Text | Print | Product List | Glossary On
Versions: 1 2 3 4 5 6 7 8 9 10 11 12 13 14 15
000
FTUS43 KIWX 161100
TAFSBN
TAF
KSBN 161133Z 1612/1712 10008KT P6SM -SHRA SCT025 BKN035 OVC060
     FM161430 13008KT 5SM -SHRA OVC025
     FM161800 23006KT P6SM BKN020
     FM162100 31006KT P6SM BKN020
     FM170500 29003KT P6SM SCT030=

USA.gov is the U.S. government's official web portal to all federal, state and local government web resources and services.